createdAt,value
2019-03-02T00:01:03.090Z,101630.94
2019-03-02T00:03:34.907Z,101636.24
2019-03-02T00:06:04.244Z,101632.21
2019-03-02T00:08:33.939Z,101639.81
2019-03-02T00:11:03.691Z,101633.27
2019-03-02T00:13:33.441Z,101625.88
2019-03-02T00:16:04.348Z,101626.37
2019-03-02T00:18:34.581Z,101633.75
2019-03-02T00:21:04.350Z,101626.00
2019-03-02T00:23:34.086Z,101625.50
2019-03-02T00:26:06.361Z,101623.08
2019-03-02T00:28:35.590Z,101620.42
2019-03-02T00:31:05.485Z,101623.00
2019-03-02T00:33:35.176Z,101623.02
2019-03-02T00:36:04.827Z,101618.05
2019-03-02T00:38:34.595Z,101611.07
2019-03-02T00:41:06.998Z,101617.39
2019-03-02T00:43:35.771Z,101613.80
2019-03-02T00:46:05.598Z,101615.69
2019-03-02T00:48:35.281Z,101616.80
2019-03-02T00:51:07.948Z,101620.59
2019-03-02T00:53:36.670Z,101615.37
2019-03-02T00:56:07.947Z,101606.80
2019-03-02T00:58:38.223Z,101609.74
2019-03-02T01:01:08.028Z,101601.98
2019-03-02T01:03:37.848Z,101603.63
2019-03-02T01:06:08.977Z,101600.58
2019-03-02T01:08:39.031Z,101600.09
2019-03-02T01:11:08.833Z,101602.17
2019-03-02T01:13:38.540Z,101604.73
2019-03-02T01:16:08.262Z,101602.66
2019-03-02T01:18:38.707Z,101594.79
2019-03-02T01:21:09.549Z,101601.14
2019-03-02T01:23:39.315Z,101597.98
2019-03-02T01:26:09.203Z,101589.33
2019-03-02T01:28:41.651Z,101583.70
2019-03-02T01:31:10.321Z,101584.00
2019-03-02T01:33:39.959Z,101579.03
2019-03-02T01:36:09.757Z,101580.42
2019-03-02T01:38:39.440Z,101577.73
2019-03-02T01:41:09.216Z,101580.11
2019-03-02T01:43:40.487Z,101578.78
2019-03-02T01:46:10.781Z,101571.59
2019-03-02T01:48:40.410Z,101567.27
2019-03-02T01:51:10.256Z,101567.54
2019-03-02T01:53:41.819Z,101563.15
2019-03-02T01:56:11.322Z,101557.51
2019-03-02T01:58:41.016Z,101561.16
2019-03-02T02:01:10.811Z,101554.78
2019-03-02T02:03:43.664Z,101549.50
2019-03-02T02:06:12.412Z,101553.34
2019-03-02T02:08:42.134Z,101551.03
2019-03-02T02:11:14.533Z,101540.28
2019-03-02T02:13:43.971Z,101542.61
2019-03-02T02:16:13.852Z,101541.36
2019-03-02T02:18:43.544Z,101529.63
2019-03-02T02:21:13.220Z,101533.34
2019-03-02T02:23:45.718Z,101531.50
2019-03-02T02:26:14.569Z,101533.83
2019-03-02T02:28:44.265Z,101521.93
2019-03-02T02:31:13.910Z,101527.52
2019-03-02T02:33:44.630Z,101516.36
2019-03-02T02:36:18.764Z,101519.03
2019-03-02T02:38:53.887Z,101519.58
2019-03-02T02:41:23.006Z,101515.37
2019-03-02T02:43:49.224Z,101515.13
2019-03-02T02:46:19.141Z,101508.48
2019-03-02T02:48:48.981Z,101504.58
2019-03-02T02:51:19.230Z,101506.92
2019-03-02T02:53:48.973Z,101501.34
2019-03-02T02:56:19.555Z,101503.50
2019-03-02T02:58:55.663Z,101497.32
2019-03-02T03:01:21.501Z,101490.34
2019-03-02T03:03:54.797Z,101492.66
2019-03-02T03:06:22.786Z,101490.01
2019-03-02T03:08:52.519Z,101492.16
2019-03-02T03:11:22.308Z,101486.05
2019-03-02T03:13:52.008Z,101490.27
2019-03-02T03:16:21.666Z,101482.88
2019-03-02T03:18:52.381Z,101476.52
2019-03-02T03:21:26.824Z,101470.45
2019-03-02T03:23:54.285Z,101473.13
2019-03-02T03:26:24.117Z,101472.16
2019-03-02T03:28:53.804Z,101468.38
2019-03-02T03:31:25.958Z,101464.92
2019-03-02T03:33:54.998Z,101469.14
2019-03-02T03:36:24.716Z,101456.19
2019-03-02T03:38:54.374Z,101456.14
2019-03-02T03:41:24.187Z,101460.41
2019-03-02T03:43:53.836Z,101459.92
2019-03-02T03:46:23.877Z,101458.84
2019-03-02T03:48:56.411Z,101460.11
2019-03-02T03:51:26.224Z,101452.21
2019-03-02T03:54:01.447Z,101451.16
2019-03-02T03:56:28.680Z,101453.54
2019-03-02T03:58:58.879Z,101451.41
2019-03-02T04:01:28.739Z,101448.73
2019-03-02T04:03:58.594Z,101445.84
2019-03-02T04:06:29.212Z,101444.98
2019-03-02T04:09:03.399Z,101443.97
2019-03-02T04:11:30.453Z,101446.35
2019-03-02T04:14:00.122Z,101447.18
2019-03-02T04:16:29.838Z,101443.19
2019-03-02T04:19:00.372Z,101446.23
2019-03-02T04:21:37.174Z,101448.80
2019-03-02T04:24:07.023Z,101446.68
2019-03-02T04:26:38.426Z,101448.55
2019-03-02T04:29:10.092Z,101451.98
2019-03-02T04:31:43.969Z,101440.60
2019-03-02T04:34:11.366Z,101439.53
2019-03-02T04:36:43.206Z,101438.97
2019-03-02T04:39:13.669Z,101441.88
2019-03-02T04:41:44.274Z,101441.11
2019-03-02T04:44:14.055Z,101436.14
2019-03-02T04:46:43.733Z,101444.03
2019-03-02T04:49:14.618Z,101437.70
2019-03-02T04:51:44.924Z,101432.41
2019-03-02T04:54:14.569Z,101428.38
2019-03-02T04:56:44.376Z,101434.29
2019-03-02T04:59:14.044Z,101423.08
2019-03-02T05:01:46.139Z,101426.27
2019-03-02T05:04:15.130Z,101428.12
2019-03-02T05:06:44.861Z,101423.63
2019-03-02T05:09:17.228Z,101426.54
2019-03-02T05:11:45.951Z,101424.47
2019-03-02T05:14:15.644Z,101426.27
2019-03-02T05:16:45.395Z,101421.73
2019-03-02T05:19:15.627Z,101416.70
2019-03-02T05:21:45.373Z,101410.37
2019-03-02T05:24:15.060Z,101409.83
2019-03-02T05:26:44.801Z,101408.23
2019-03-02T05:29:14.836Z,101401.05
2019-03-02T05:31:45.946Z,101408.30
2019-03-02T05:34:16.079Z,101399.08
2019-03-02T05:36:45.733Z,101394.84
2019-03-02T05:39:17.267Z,101398.98
2019-03-02T05:41:46.848Z,101399.77
2019-03-02T05:44:16.797Z,101399.77
2019-03-02T05:46:46.476Z,101401.09
2019-03-02T05:49:18.541Z,101404.28
2019-03-02T05:51:48.651Z,101405.91
2019-03-02T05:54:18.673Z,101397.45
2019-03-02T05:56:48.381Z,101403.20
2019-03-02T05:59:18.060Z,101404.02
2019-03-02T06:01:47.770Z,101406.41
2019-03-02T06:04:18.826Z,101401.09
2019-03-02T06:06:50.655Z,101406.10
2019-03-02T06:09:20.823Z,101399.98
2019-03-02T06:15:19.969Z,101404.27
2019-03-02T06:17:49.750Z,101406.66
2019-03-02T06:20:19.483Z,101395.55
2019-03-02T06:23:08.041Z,101388.48
2019-03-02T06:25:37.735Z,101393.22
2019-03-02T06:28:07.389Z,101370.13
2019-03-02T06:30:37.184Z,101362.48
2019-03-02T06:33:08.417Z,101359.22
2019-03-02T06:35:38.487Z,101353.77
2019-03-02T06:38:08.164Z,101340.97
2019-03-02T06:40:37.895Z,101333.47
2019-03-02T06:43:07.638Z,101334.80
2019-03-02T06:45:40.590Z,101327.20
2019-03-02T06:48:09.620Z,101321.35
2019-03-02T06:50:40.454Z,101329.55
2019-03-02T06:53:10.088Z,101321.15
2019-03-02T06:55:39.771Z,101310.54
2019-03-02T06:58:09.445Z,101307.38
2019-03-02T07:00:39.262Z,101309.01
2019-03-02T07:03:10.060Z,101301.61
2019-03-02T07:05:40.449Z,101310.69
2019-03-02T07:08:10.140Z,101306.45
2019-03-02T07:10:39.885Z,101311.20
2019-03-02T07:13:10.654Z,101312.33
2019-03-02T07:15:43.372Z,101315.58
2019-03-02T07:18:14.134Z,101315.91
2019-03-02T07:20:45.491Z,101317.16
2019-03-02T07:23:15.264Z,101321.77
2019-03-02T07:25:45.671Z,101324.90
2019-03-02T07:28:15.503Z,101331.87
2019-03-02T07:30:45.257Z,101332.94
2019-03-02T07:33:14.897Z,101341.62
2019-03-02T07:35:44.966Z,101338.48
2019-03-02T07:38:16.859Z,101340.63
2019-03-02T07:40:47.128Z,101345.13
2019-03-02T07:43:16.941Z,101350.12
2019-03-02T07:45:46.726Z,101355.44
2019-03-02T07:48:16.364Z,101349.92
2019-03-02T07:50:46.135Z,101353.94
2019-03-02T07:53:15.783Z,101355.58
2019-03-02T07:55:45.495Z,101350.83
2019-03-02T07:58:16.573Z,101350.61
2019-03-02T08:00:46.691Z,101352.45
2019-03-02T08:03:16.384Z,101357.55
2019-03-02T08:05:46.908Z,101359.16
2019-03-02T08:08:17.760Z,101357.88
2019-03-02T08:10:47.462Z,101363.45
2019-03-02T08:13:17.157Z,101362.63
2019-03-02T08:15:46.930Z,101361.91
2019-03-02T08:18:16.618Z,101361.09
2019-03-02T08:20:46.289Z,101358.69
2019-03-02T08:23:16.172Z,101353.61
2019-03-02T08:25:45.804Z,101357.11
2019-03-02T08:28:15.514Z,101355.27
2019-03-02T08:30:45.444Z,101356.04
2019-03-02T08:33:15.263Z,101365.88
2019-03-02T08:35:44.913Z,101361.69
2019-03-02T08:38:14.592Z,101356.38
2019-03-02T08:40:44.268Z,101354.50
2019-03-02T08:43:16.478Z,101359.55
2019-03-02T08:45:45.586Z,101358.77
2019-03-02T08:48:15.287Z,101354.80
2019-03-02T08:50:45.662Z,101357.16
2019-03-02T08:53:15.490Z,101350.84
2019-03-02T08:55:45.311Z,101343.41
2019-03-02T08:58:15.040Z,101342.63
2019-03-02T09:00:44.709Z,101344.77
2019-03-02T09:03:14.377Z,101337.62
2019-03-02T09:05:50.665Z,101339.27
2019-03-02T09:08:15.642Z,101335.77
2019-03-02T09:10:45.846Z,101340.34
2019-03-02T09:13:17.064Z,101335.81
2019-03-02T09:15:46.944Z,101332.60
2019-03-02T09:18:16.612Z,101332.05
2019-03-02T09:20:46.330Z,101338.72
2019-03-02T09:23:16.034Z,101334.48
2019-03-02T09:25:45.956Z,101332.89
2019-03-02T09:28:15.639Z,101326.06
2019-03-02T09:30:45.427Z,101321.79
2019-03-02T09:33:15.152Z,101327.39
2019-03-02T09:35:45.106Z,101326.87
2019-03-02T09:38:17.050Z,101318.91
2019-03-02T09:40:49.150Z,101320.78
2019-03-02T09:43:17.791Z,101315.73
2019-03-02T09:45:48.140Z,101307.77
2019-03-02T09:48:20.886Z,101306.17
2019-03-02T09:50:50.460Z,101299.56
2019-03-02T09:53:20.234Z,101307.56
2019-03-02T09:55:51.981Z,101308.94
2019-03-02T09:58:24.396Z,101322.55
2019-03-02T10:00:52.897Z,101317.88
2019-03-02T10:03:23.126Z,101312.63
2019-03-02T10:05:54.070Z,101304.45
2019-03-02T10:08:23.828Z,101305.58
2019-03-02T10:10:53.499Z,101306.64
2019-03-02T10:13:23.574Z,101300.52
2019-03-02T10:15:53.574Z,101301.56
2019-03-02T10:18:23.355Z,101298.09
2019-03-02T10:20:54.774Z,101295.16
2019-03-02T10:23:24.618Z,101306.34
2019-03-02T10:25:54.379Z,101302.87
2019-03-02T10:28:24.096Z,101302.05
2019-03-02T10:30:53.915Z,101300.70
2019-03-02T10:33:24.173Z,101296.97
2019-03-02T10:35:54.146Z,101294.80
2019-03-02T10:38:23.912Z,101289.20
2019-03-02T10:40:53.618Z,101288.88
2019-03-02T10:43:23.317Z,101286.19
2019-03-02T10:45:53.175Z,101268.53
2019-03-02T10:48:22.931Z,101276.51
2019-03-02T10:50:55.883Z,101276.23
2019-03-02T10:53:25.172Z,101277.51
2019-03-02T10:55:55.955Z,101271.09
2019-03-02T10:58:25.818Z,101268.11
2019-03-02T11:00:55.531Z,101265.78
2019-03-02T11:03:27.983Z,101260.98
2019-03-02T11:06:04.216Z,101248.76
2019-03-02T11:08:47.862Z,101251.98
2019-03-02T11:11:29.356Z,101246.95
2019-03-02T11:13:59.609Z,101238.70
2019-03-02T11:16:51.537Z,101231.77
2019-03-02T11:19:30.378Z,101232.27
2019-03-02T11:22:04.867Z,101220.69
2019-03-02T11:24:50.977Z,101217.14
2019-03-02T11:27:35.014Z,101207.44
2019-03-02T11:30:10.224Z,101202.30
2019-03-02T11:32:47.618Z,101193.30
2019-03-02T11:35:26.156Z,101192.91
2019-03-02T11:38:06.512Z,101189.94
2019-03-02T11:40:46.976Z,101184.50
2019-03-02T11:43:18.352Z,101183.91
2019-03-02T11:45:52.659Z,101180.32
2019-03-02T11:48:27.086Z,101177.36
2019-03-02T11:51:01.158Z,101178.16
2019-03-02T11:53:34.978Z,101177.59
2019-03-02T11:56:07.562Z,101174.16
2019-03-02T11:58:40.155Z,101168.81
2019-03-02T12:01:30.018Z,101162.73
2019-03-02T12:04:01.039Z,101160.80
2019-03-02T12:06:32.639Z,101164.29
2019-03-02T12:09:15.631Z,101152.77
2019-03-02T12:11:48.521Z,101151.52
2019-03-02T12:14:26.170Z,101153.42
2019-03-02T12:17:00.196Z,101139.89
2019-03-02T12:19:33.066Z,101137.56
2019-03-02T12:22:18.103Z,101131.47
2019-03-02T12:24:49.414Z,101138.16
2019-03-02T12:27:37.022Z,101138.63
2019-03-02T12:30:13.499Z,101121.24
2019-03-02T12:32:44.290Z,101128.11
2019-03-02T12:35:14.224Z,101119.87
2019-03-02T12:37:54.376Z,101124.87
2019-03-02T12:40:25.748Z,101113.36
2019-03-02T12:43:10.644Z,101114.42
2019-03-02T12:45:41.949Z,101103.44
2019-03-02T12:48:13.280Z,101109.04
2019-03-02T12:50:48.828Z,101102.16
2019-03-02T12:53:38.361Z,101092.44
2019-03-02T12:56:07.885Z,101093.92
2019-03-02T12:58:59.937Z,101098.88
2019-03-02T13:01:33.885Z,101080.05
2019-03-02T13:04:05.832Z,101092.09
2019-03-02T13:06:38.785Z,101090.76
2019-03-02T13:09:19.116Z,101086.70
2019-03-02T13:11:50.556Z,101088.04
2019-03-02T13:14:32.101Z,101081.41
2019-03-02T13:17:03.747Z,101087.94
2019-03-02T13:19:35.339Z,101081.36
2019-03-02T13:22:16.111Z,101078.37
2019-03-02T13:24:53.867Z,101079.14
2019-03-02T13:27:26.689Z,101075.64
2019-03-02T13:30:14.162Z,101072.38
2019-03-02T13:33:03.723Z,101070.56
2019-03-02T13:35:37.932Z,101059.44
2019-03-02T13:38:18.318Z,101062.11
2019-03-02T13:40:49.642Z,101064.63
2019-03-02T13:43:30.085Z,101051.97
2019-03-02T13:46:17.425Z,101049.88
2019-03-02T13:48:50.336Z,101044.53
2019-03-02T13:51:21.939Z,101034.95
2019-03-02T13:53:59.232Z,101037.82
2019-03-02T13:56:30.878Z,101034.88
2019-03-02T13:59:02.323Z,101034.27
2019-03-02T14:01:39.198Z,101032.81
2019-03-02T14:04:25.103Z,101032.04
2019-03-02T14:06:58.094Z,101031.55
2019-03-02T14:09:32.511Z,101029.16
2019-03-02T14:12:03.890Z,101031.53
2019-03-02T14:14:44.829Z,101028.19
2019-03-02T14:17:17.108Z,101022.34
2019-03-02T14:20:06.738Z,101022.70
2019-03-02T14:22:48.805Z,101016.55
2019-03-02T14:25:19.142Z,101016.06
2019-03-02T14:27:53.978Z,101013.64
2019-03-02T14:30:32.709Z,101021.55
2019-03-02T14:33:04.108Z,101018.36
2019-03-02T14:35:37.394Z,101013.84
2019-03-02T14:38:24.942Z,101010.72
2019-03-02T14:40:56.521Z,101013.14
2019-03-02T14:43:27.836Z,101008.78
2019-03-02T14:46:02.333Z,101011.45
2019-03-02T14:48:36.370Z,101003.22
2019-03-02T14:51:05.931Z,101002.64
2019-03-02T14:53:42.022Z,101001.00
2019-03-02T14:56:14.008Z,101007.52
2019-03-02T14:58:47.805Z,101008.35
2019-03-02T15:01:17.247Z,101003.88
2019-03-02T15:03:48.607Z,101001.48
2019-03-02T15:06:21.620Z,101004.17
2019-03-02T15:08:55.606Z,101000.10
2019-03-02T15:11:27.180Z,100997.09
2019-03-02T15:14:13.600Z,100996.41
2019-03-02T15:16:47.596Z,100998.73
2019-03-02T15:19:21.740Z,101003.84
2019-03-02T15:22:03.678Z,100995.02
2019-03-02T15:24:43.971Z,100999.37
2019-03-02T15:27:16.762Z,101006.05
2019-03-02T15:29:51.712Z,101008.52
2019-03-02T15:32:25.847Z,101001.39
2019-03-02T15:35:06.142Z,101004.98
2019-03-02T15:37:40.247Z,100999.70
2019-03-02T15:40:17.177Z,101000.58
2019-03-02T15:42:54.207Z,100999.05
2019-03-02T15:45:27.616Z,100997.67
2019-03-02T15:47:58.989Z,100994.88
2019-03-02T15:50:39.217Z,100996.77
2019-03-02T15:53:08.882Z,100997.38
2019-03-02T15:55:41.289Z,100996.54
2019-03-02T15:58:25.159Z,100999.48
2019-03-02T16:01:03.380Z,100995.52
2019-03-02T16:03:43.851Z,100997.99
2019-03-02T16:06:15.353Z,100997.22
2019-03-02T16:09:03.144Z,100993.75
2019-03-02T16:11:51.092Z,100995.38
2019-03-02T16:14:20.694Z,100995.69
2019-03-02T16:16:56.091Z,100993.80
2019-03-02T16:19:36.694Z,100993.02
2019-03-02T16:22:17.694Z,100990.08
2019-03-02T16:24:49.051Z,100985.32
2019-03-02T16:27:20.568Z,100982.13
2019-03-02T16:29:57.847Z,100982.37
2019-03-02T16:32:39.541Z,100975.95
2019-03-02T16:35:27.471Z,100978.66
2019-03-02T16:38:04.668Z,100976.56
2019-03-02T16:40:44.732Z,100983.73
2019-03-02T16:43:33.463Z,100977.16
2019-03-02T16:46:07.842Z,100985.95
2019-03-02T16:48:55.721Z,100983.53
2019-03-02T16:51:30.497Z,100982.77
2019-03-02T16:54:04.547Z,100988.02
2019-03-02T16:56:36.145Z,100990.16
2019-03-02T16:59:11.366Z,100990.16
2019-03-02T17:01:48.690Z,100990.75
2019-03-02T17:04:23.529Z,100983.85
2019-03-02T17:06:58.081Z,100987.04
2019-03-02T17:09:32.228Z,100992.95
2019-03-02T17:12:21.832Z,100982.87
2019-03-02T17:15:08.121Z,100981.72
2019-03-02T17:17:40.390Z,100984.38
2019-03-02T17:20:30.322Z,100986.86
2019-03-02T17:23:10.300Z,100984.45
2019-03-02T17:25:43.906Z,100986.58
2019-03-02T17:28:21.118Z,100989.77
2019-03-02T17:30:50.646Z,100993.45
2019-03-02T17:33:36.662Z,100988.69
2019-03-02T17:36:13.903Z,100990.86
2019-03-02T17:38:44.009Z,100982.87
2019-03-02T17:41:19.552Z,100985.53
2019-03-02T17:43:51.394Z,100987.91
2019-03-02T17:46:22.794Z,100988.97
2019-03-02T17:48:59.973Z,100994.29
2019-03-02T17:51:36.149Z,100993.80
2019-03-02T17:54:22.492Z,100985.56
2019-03-02T17:57:05.956Z,100979.95
2019-03-02T17:59:39.699Z,100975.72
2019-03-02T18:02:17.707Z,100973.05
2019-03-02T18:05:07.946Z,100975.44
2019-03-02T18:07:52.427Z,100982.90
2019-03-02T18:10:22.004Z,100982.13
2019-03-02T18:12:55.986Z,100981.84
2019-03-02T18:15:27.331Z,100986.86
2019-03-02T18:18:01.096Z,100986.92
2019-03-02T18:20:31.085Z,100988.53
2019-03-02T18:23:00.848Z,100988.25
2019-03-02T18:25:30.747Z,100998.63
2019-03-02T18:28:00.620Z,100986.34
2019-03-02T18:30:30.374Z,100994.05
2019-03-02T18:33:01.877Z,100996.89
2019-03-02T18:35:34.170Z,100996.92
2019-03-02T18:38:08.190Z,100999.58
2019-03-02T18:40:39.022Z,101001.44
2019-03-02T18:43:08.097Z,100999.30
2019-03-02T18:45:39.668Z,100995.63
2019-03-02T18:48:11.435Z,100998.78
2019-03-02T18:50:42.838Z,101001.72
2019-03-02T18:53:12.610Z,101007.60
2019-03-02T18:55:42.769Z,101007.08
2019-03-02T18:58:12.491Z,101011.59
2019-03-02T19:00:43.854Z,101007.08
2019-03-02T19:03:13.660Z,101011.04
2019-03-02T19:05:46.130Z,101006.55
2019-03-02T19:08:16.026Z,101003.14
2019-03-02T19:10:46.021Z,101014.04
2019-03-02T19:13:15.737Z,101013.48
2019-03-02T19:15:53.539Z,101008.97
2019-03-02T19:18:16.837Z,101010.27
2019-03-02T19:20:46.908Z,101009.46
2019-03-02T19:23:16.633Z,101012.92
2019-03-02T19:25:46.387Z,101014.78
2019-03-02T19:28:16.143Z,101006.80
2019-03-02T19:30:45.907Z,101017.73
2019-03-02T19:33:15.722Z,101017.45
2019-03-02T19:35:45.410Z,101009.18
2019-03-02T19:38:15.092Z,101013.39
2019-03-02T19:40:44.880Z,101024.88
2019-03-02T19:43:14.579Z,101025.72
2019-03-02T19:45:44.240Z,101033.17
2019-03-02T19:48:15.101Z,101028.38
2019-03-02T19:50:44.895Z,101025.19
2019-03-02T19:53:14.741Z,101018.53
2019-03-02T19:55:44.433Z,101010.83
2019-03-02T19:58:14.180Z,101009.70
2019-03-02T20:00:43.844Z,101001.72
2019-03-02T20:03:14.001Z,100998.01
2019-03-02T20:05:44.063Z,100996.39
2019-03-02T20:08:14.942Z,101006.73
2019-03-02T20:10:45.086Z,101016.64
2019-03-02T20:13:14.817Z,101011.04
2019-03-02T20:15:45.261Z,101008.88
2019-03-02T20:18:14.947Z,101011.01
2019-03-02T20:20:44.755Z,101008.59
2019-03-02T20:23:14.424Z,101004.56
2019-03-02T20:25:44.135Z,101000.56
2019-03-02T20:28:13.807Z,101004.88
2019-03-02T20:30:43.567Z,100990.75
2019-03-02T20:33:14.555Z,100996.08
2019-03-02T20:35:44.274Z,101002.21
2019-03-02T20:38:13.973Z,101007.78
2019-03-02T20:40:43.643Z,100994.22
2019-03-02T20:43:13.538Z,101004.25
2019-03-02T20:45:43.397Z,100997.62
2019-03-02T20:48:13.104Z,101003.23
2019-03-02T20:50:42.848Z,101000.04
2019-03-02T20:53:12.675Z,100994.43
2019-03-02T20:55:42.348Z,101010.05
2019-03-02T20:58:12.055Z,101004.73
2019-03-02T21:00:42.956Z,101008.48
2019-03-02T21:03:12.774Z,101010.06
2019-03-02T21:05:42.548Z,101008.77
2019-03-02T21:08:12.341Z,101007.36
2019-03-02T21:10:42.075Z,101004.80
2019-03-02T21:13:12.019Z,101005.89
2019-03-02T21:15:44.212Z,100997.13
2019-03-02T21:18:13.900Z,101002.67
2019-03-02T21:20:43.812Z,101004.00
2019-03-02T21:23:13.573Z,101007.50
2019-03-02T21:25:43.381Z,101000.25
2019-03-02T21:28:13.504Z,101007.47
2019-03-02T21:30:43.178Z,101009.89
2019-03-02T21:33:12.920Z,101002.00
2019-03-02T21:35:42.608Z,101005.16
2019-03-02T21:38:12.420Z,101000.95
2019-03-02T21:40:42.151Z,100997.52
2019-03-02T21:43:11.929Z,100998.63
2019-03-02T21:45:41.739Z,100989.61
2019-03-02T21:48:11.398Z,100989.36
2019-03-02T21:50:57.810Z,100982.73
2019-03-02T21:53:27.563Z,100988.86
2019-03-02T21:55:57.310Z,100988.89
2019-03-02T21:58:26.953Z,100975.36
2019-03-02T22:00:56.715Z,100974.33
2019-03-02T22:03:26.426Z,100973.25
2019-03-02T22:05:56.156Z,100975.06
2019-03-02T22:08:25.904Z,100976.64
2019-03-02T22:11:09.380Z,100973.09
2019-03-02T22:13:39.074Z,100968.04
2019-03-02T22:16:08.887Z,100969.09
2019-03-02T22:18:38.647Z,100966.40
2019-03-02T22:21:08.644Z,100969.09
2019-03-02T22:23:38.337Z,100966.95
2019-03-02T22:26:08.052Z,100959.99
2019-03-02T22:28:37.775Z,100961.33
2019-03-02T22:31:07.764Z,100965.34
2019-03-02T22:33:37.460Z,100951.80
2019-03-02T22:36:07.132Z,100946.12
2019-03-02T22:38:36.850Z,100949.03
2019-03-02T22:41:06.576Z,100945.28
2019-03-02T22:43:36.328Z,100946.09
2019-03-02T22:46:06.287Z,100945.52
2019-03-02T22:48:36.132Z,100933.58
2019-03-02T22:51:05.848Z,100946.05
2019-03-02T22:53:35.560Z,100944.71
2019-03-02T22:56:05.392Z,100947.30
2019-03-02T22:58:34.250Z,100940.88
2019-03-02T23:01:14.558Z,100936.28
2019-03-02T23:03:42.666Z,100930.46
2019-03-02T23:06:12.339Z,100924.57
2019-03-02T23:08:42.087Z,100934.99
2019-03-02T23:11:11.881Z,100931.84
2019-03-02T23:13:41.674Z,100920.95
2019-03-02T23:16:11.413Z,100918.56
2019-03-02T23:18:41.138Z,100920.27
2019-03-02T23:21:10.785Z,100912.80
2019-03-02T23:23:40.506Z,100920.23
2019-03-02T23:26:11.660Z,100914.66
2019-03-02T23:28:41.442Z,100914.73
2019-03-02T23:31:11.100Z,100913.36
2019-03-02T23:33:40.864Z,100913.61
2019-03-02T23:36:10.574Z,100919.50
2019-03-02T23:38:40.306Z,100907.52
2019-03-02T23:41:10.034Z,100908.31
2019-03-02T23:43:39.895Z,100915.82
2019-03-02T23:46:09.715Z,100909.45
2019-03-02T23:48:39.392Z,100917.47
2019-03-02T23:51:09.122Z,100911.55
2019-03-02T23:53:38.804Z,100912.11
2019-03-02T23:56:08.480Z,100907.03
2019-03-02T23:58:38.157Z,100906.27
